• Join FlightAware (Why Join?)
  • Login
  • US Flag 
02:56PM EDT


 

Airport Tracker/Info


-or-


 

Live Flight TrackerFlight Track Log ✈ SKW6534 ✈ 20-Apr-2013 ✈ KDEN - KIDA

Flight Track Log - Related Links

Times and Time Zones

All times are in EDT time to prevent confusion due to time zone crossing. See the SKW6534 flight status page for this flight to view local times or setup timezone preferences in your user account.

Time Position Orientation Groundspeed Altitude Reporting Facility
EDT Latitude Longitude Course Direction KTS MPH feet Rate Location/Type
01:43PM 39.9136 -104.6847 348° North 183 211 6,400  Level Denver Center
01:44PM 39.9789 -104.6731 North 218 251 8,900 2,040 Climbing Denver Center
01:45PM 40.1837 -104.7768 347° North  Level FlightAware Approximate
01:45PM 40.0514 -104.6589 North 263 303 10,600  Level Denver Center
01:46PM 40.2958 -104.8104 347° North  Level FlightAware Approximate
01:46PM 40.1447 -104.6814 350° North 316 364 13,000  Level Denver Center
01:47PM 40.4074 -104.8469 346° North  Level FlightAware Approximate
01:47PM 40.2267 -104.7036 348° North 304 350 15,300  Level Denver Center
01:48PM 40.5188 -104.8839 348° North  Level FlightAware Approximate
01:48PM 40.3189 -104.7281 349° North 309 356 17,900  Level Denver Center
01:49PM 40.4044 -104.7497 349° North 316 364 19,700 1,740 Climbing Denver Center
01:50PM 40.4897 -104.7744 348° North 314 361 21,500 1,560 Climbing Denver Center
01:51PM 40.5858 -104.7986 349° North 330 380 22,900 1,260 Climbing Denver Center
01:52PM 40.6764 -104.8242 348° North 336 387 24,100 1,140 Climbing Denver Center
01:53PM 40.7644 -104.8450 350° North 334 384 25,300 1,020 Climbing Denver Center
01:54PM 40.8586 -104.8847 342° North 347 399 26,300 1,020 Climbing Denver Center
01:55PM 40.9678 -104.9397 339° North 358 412 27,500 900 Climbing Denver Center
01:56PM 41.0600 -104.9836 340° North 364 419 28,200 720 Climbing Denver Center
01:57PM 41.1519 -105.0308 339° North 369 425 29,000 780 Climbing Denver Center
01:58PM 41.2603 -105.0844 340° North 371 427 29,900 720 Climbing Denver Center
01:59PM 41.3536 -105.1297 340° North 373 429 30,500 600 Climbing Denver Center
02:00PM 41.4639 -105.1872 339° North 379 436 31,200 420 Climbing Denver Center
02:01PM 41.5569 -105.2411 337° Northwest 381 438 31,400 360 Climbing Denver Center
02:02PM 41.6053 -105.3836 294° West 386 444 32,000 240 Climbing Denver Center
02:03PM 41.6325 -105.5131 286° West 381 438 32,000  Level Denver Center
02:04PM 41.6597 -105.6414 286° West 377 434 32,000  Level Denver Center
02:05PM 41.6939 -105.7911 287° West 377 434 32,000  Level Denver Center
02:07PM 41.7225 -105.9197 287° West 377 434 32,000  Level Denver Center
02:08PM 41.7550 -106.0694 286° West 375 432 32,000  Level Denver Center
02:09PM 41.7844 -106.2000 287° West 380 437 32,000  Level Denver Center
02:10PM 41.8186 -106.3531 287° West 383 441 32,000  Level Denver Center
02:11PM 41.8481 -106.4847 287° West 385 443 32,000  Level Denver Center
02:12PM 41.8808 -106.6311 287° West 386 444 32,000  Level Denver Center
02:13PM 41.9092 -106.7617 286° West 383 441 32,000  Level Denver Center
02:14PM 41.9425 -106.9117 287° West 377 434 32,000  Level Denver Center
02:15PM 41.9683 -107.0394 285° West 373 429 32,000  Level Denver Center
02:16PM 42.0014 -107.1900 287° West 376 433 32,000  Level Denver Center
02:17PM 42.0300 -107.3197 287° West 379 436 32,000  Level Denver Center
02:18PM 42.0617 -107.4711 286° West 378 435 32,000  Level Denver Center
02:19PM 42.0869 -107.6031 285° West 381 438 32,000  Level Denver Center
02:20PM 42.1147 -107.7342 286° West 383 441 32,000  Level Salt Lake Center
02:21PM 42.1425 -107.8683 286° West 387 445 32,000  Level Salt Lake Center
02:22PM 42.1683 -108.0003 285° West 385 443 32,000  Level Salt Lake Center
02:23PM 42.2031 -108.1622 286° West 398 458 32,000  Level Salt Lake Center
02:24PM 42.2314 -108.3017 285° West 405 466 32,000  Level Salt Lake Center
02:25PM 42.2828 -108.4586 294° West 409 471 32,000  Level Salt Lake Center
02:26PM 42.3314 -108.5931 296° West 415 478 32,000  Level Salt Lake Center
02:27PM 42.3892 -108.7506 296° West 420 483 32,000  Level Salt Lake Center
02:28PM 42.4372 -108.8858 296° West 419 482 32,000  Level Salt Lake Center
02:29PM 42.4931 -109.0428 296° West 417 480 32,000  Level Salt Lake Center
02:30PM 42.5414 -109.1778 296° West 417 480 32,000  Level Salt Lake Center
02:31PM 42.5975 -109.3367 296° West 418 481 32,000  Level Salt Lake Center
02:32PM 42.6442 -109.4708 295° West 416 479 32,000  Level Salt Lake Center
02:33PM 42.6911 -109.6033 296° West 409 471 32,000  Level Salt Lake Center
02:34PM 42.7456 -109.7614 295° West 414 476 32,000  Level Salt Lake Center
02:35PM 42.7933 -109.8931 296° West 411 473 32,000  Level Salt Lake Center
02:36PM 42.8494 -110.0508 296° West 413 475 32,000  Level Salt Lake Center
02:37PM 42.9111 -110.1733 305° West 411 473 32,000  Level Salt Lake Center
02:38PM 42.9814 -110.3175 304° West 409 471 32,000 -480 Level Salt Lake Center
02:39PM 43.0444 -110.4431 305° West 414 476 31,100 -1,440 Descending Salt Lake Center
02:40PM 43.1044 -110.5686 303° West 413 475 29,100 -2,280 Descending Salt Lake Center
02:41PM 43.1694 -110.6986 304° West 378 435 26,500 -2,400 Descending Salt Lake Center
02:42PM 43.2250 -110.8028 306° West 357 411 24,200 -2,580 Descending Salt Lake Center
02:43PM 43.2900 -110.9244 306° West 355 409 21,300 -2,640 Descending Salt Lake Center
02:44PM 43.3464 -111.0311 306° West 351 404 18,800 -2,340 Descending Salt Lake Center
02:45PM 43.4025 -111.1364 306° West 340 391 16,600 -2,100 Descending Salt Lake Center
02:46PM 43.4586 -111.2333 309° West 318 366 14,600 -1,920 Descending Salt Lake Center
02:47PM 43.5119 -111.3225 310° West 314 361 12,700 -1,320 Descending Salt Lake Center
02:49PM 43.5683 -111.4300 306° West 312 359 12,000 -360 Descending Salt Lake Center
02:50PM 43.6158 -111.5208 306° West 308 354 12,000 -60 Level Salt Lake Center
02:51PM 43.6625 -111.6383 299° West 308 354 11,900 -840 Descending Salt Lake Center
02:52PM 43.6908 -111.7303 293° West 289 333 10,300 -1,440 Descending Salt Lake Center
02:53PM 43.7114 -111.8181 288° West 268 308 9,000 -840 Descending Salt Lake Center
02:54PM 43.6800 -111.8983 242° Southwest 231 266 8,700 -300 Descending Salt Lake Center